SAWP/PMQ METAR and TAF weather

Enter ICAO airport designator
Station Type Date Time Source
SAWP METAR 2019/06/13 16:30 UTC NOAA

SAWP 131630Z 14009KT 6000 -DZ BKN013 SCT045 02/01 Q1016


Station Type Date Time Source
SAWP Decoded METAR 2019/06/13 16:30 UTC NOAA

Perito Moreno Aerodrome, Argentina (SAWP) 46-31S 071-01W 429M
Jun 13, 2019 - 12:30 PM EDT / 2019.06.13 1630 UTC
Wind: from the SE (140 degrees) at 10 MPH (9 KT):0
Visibility: 3 mile(s):0
Sky conditions: mostly cloudy
Weather: light drizzle
Temperature: 35 F (2 C)
Windchill: 26 F (-3 C):1
Dew Point: 33 F (1 C)
Relative Humidity: 93%
Pressure (altimeter): 30.00 in. Hg (1016 hPa)
ob: SAWP 131630Z 14009KT 6000 -DZ BKN013 SCT045 02/01 Q1016
cycle: 16

Station Type Date Time Source
SAWP TAF UTC NOAA

Error!

Example: see airport list